createdAt,value
2023-02-01T00:01:29.833Z,2.20
2023-02-01T00:06:36.279Z,2.30
2023-02-01T00:11:44.367Z,1.85
2023-02-01T00:16:50.931Z,1.55
2023-02-01T00:21:57.383Z,1.30
2023-02-01T00:27:05.121Z,1.42
2023-02-01T00:32:11.166Z,1.10
2023-02-01T00:37:17.435Z,1.27
2023-02-01T00:42:25.442Z,0.85
2023-02-01T00:47:31.884Z,1.17
2023-02-01T00:52:38.153Z,1.17
2023-02-01T00:57:45.783Z,1.30
2023-02-01T01:02:51.842Z,1.02
2023-02-01T01:07:58.088Z,1.02
2023-02-01T01:13:08.368Z,1.05
2023-02-01T01:18:14.994Z,1.25
2023-02-01T01:23:21.963Z,1.20
2023-02-01T01:28:29.713Z,1.00
2023-02-01T01:33:36.128Z,1.30
2023-02-01T01:38:43.881Z,1.67
2023-02-01T01:44:00.945Z,1.30
2023-02-01T01:49:13.168Z,1.00
2023-02-01T01:54:24.323Z,1.20
2023-02-01T01:59:34.072Z,1.30
2023-02-01T02:04:42.056Z,1.10
2023-02-01T02:10:00.189Z,2.03
2023-02-01T02:15:11.437Z,1.48
2023-02-01T02:21:12.519Z,1.50
2023-02-01T02:26:45.688Z,1.33
2023-02-01T02:32:24.528Z,1.42
2023-02-01T02:37:41.811Z,1.45
2023-02-01T02:43:14.874Z,1.20
2023-02-01T02:48:28.920Z,1.13
2023-02-01T02:54:01.350Z,1.52
2023-02-01T02:59:27.001Z,1.45
2023-02-01T03:04:33.370Z,1.15
2023-02-01T03:09:46.417Z,1.30
2023-02-01T03:15:00.291Z,1.35
2023-02-01T03:20:08.839Z,1.67
2023-02-01T03:25:22.982Z,1.40
2023-02-01T03:30:34.344Z,1.42
2023-02-01T03:36:03.855Z,1.10
2023-02-01T03:41:20.551Z,1.60
2023-02-01T03:46:35.257Z,1.50
2023-02-01T03:51:44.392Z,1.65
2023-02-01T03:56:53.577Z,1.40
2023-02-01T04:07:06.603Z,0.98
2023-02-01T04:12:14.319Z,1.42
2023-02-01T04:17:20.587Z,1.15
2023-02-01T04:22:26.733Z,1.25
2023-02-01T04:27:35.902Z,1.23
2023-02-01T04:32:42.398Z,1.58
2023-02-01T04:37:48.686Z,1.45
2023-02-01T04:42:56.833Z,1.33
2023-02-01T04:48:03.059Z,1.05
2023-02-01T04:53:09.728Z,1.13
2023-02-01T04:58:17.584Z,1.20
2023-02-01T05:03:24.890Z,1.98
2023-02-01T05:08:31.263Z,1.52
2023-02-01T05:13:53.280Z,1.38
2023-02-01T05:19:01.453Z,1.50
2023-02-01T05:24:14.399Z,1.30
2023-02-01T05:29:24.060Z,1.23
2023-02-01T05:34:31.674Z,1.08
2023-02-01T05:39:37.946Z,1.75
2023-02-01T05:44:46.143Z,1.50
2023-02-01T05:49:52.453Z,1.48
2023-02-01T05:54:59.113Z,1.27
2023-02-01T06:00:08.969Z,1.35
2023-02-01T06:05:19.204Z,1.88
2023-02-01T06:10:26.049Z,1.85
2023-02-01T06:15:34.147Z,1.95
2023-02-01T06:20:40.714Z,1.60
2023-02-01T06:25:47.373Z,1.60
2023-02-01T06:30:55.395Z,1.60
2023-02-01T06:36:03.232Z,2.05
2023-02-01T06:41:10.128Z,1.80
2023-02-01T06:46:17.991Z,1.38
2023-02-01T06:51:27.947Z,1.50
2023-02-01T06:56:35.548Z,1.63
2023-02-01T07:01:43.412Z,1.52
2023-02-01T07:06:49.887Z,1.67
2023-02-01T07:11:56.143Z,1.80
2023-02-01T07:17:03.930Z,2.00
2023-02-01T07:22:10.450Z,1.60
2023-02-01T07:27:16.771Z,2.05
2023-02-01T07:32:24.703Z,1.95
2023-02-01T07:37:31.155Z,1.88
2023-02-01T07:42:37.870Z,2.45
2023-02-01T07:47:46.963Z,1.80
2023-02-01T07:58:01.776Z,1.95
2023-02-01T08:03:09.426Z,2.30
2023-02-01T08:13:22.712Z,2.28
2023-02-01T08:18:31.086Z,2.58
2023-02-01T08:23:39.172Z,2.10
2023-02-01T08:28:47.989Z,2.00
2023-02-01T08:33:58.310Z,2.17
2023-02-01T08:39:07.056Z,2.38
2023-02-01T08:44:13.375Z,2.42
2023-02-01T08:49:21.207Z,2.13
2023-02-01T08:54:27.614Z,1.67
2023-02-01T08:59:33.938Z,2.63
2023-02-01T09:04:43.210Z,1.60
2023-02-01T09:09:49.427Z,1.88
2023-02-01T09:14:55.800Z,2.00
2023-02-01T09:20:04.257Z,1.92
2023-02-01T09:25:14.022Z,1.80
2023-02-01T09:30:20.709Z,2.70
2023-02-01T09:35:28.983Z,2.15
2023-02-01T09:40:40.382Z,2.10
2023-02-01T09:46:00.320Z,1.50
2023-02-01T09:51:16.161Z,2.50
2023-02-01T09:56:27.366Z,2.15
2023-02-01T10:01:35.722Z,1.70
2023-02-01T10:07:03.440Z,1.90
2023-02-01T10:13:00.506Z,2.22
2023-02-01T10:18:46.350Z,2.13
2023-02-01T10:24:20.628Z,1.75
2023-02-01T10:29:33.822Z,2.08
2023-02-01T10:34:40.153Z,3.67
2023-02-01T10:39:50.217Z,2.25
2023-02-01T10:45:04.052Z,2.25
2023-02-01T10:50:22.758Z,1.58
2023-02-01T10:55:53.127Z,1.63
2023-02-01T11:01:04.196Z,2.20
2023-02-01T11:06:30.929Z,1.77
2023-02-01T11:11:58.505Z,2.20
2023-02-01T11:17:23.622Z,1.50
2023-02-01T11:22:31.439Z,2.28
2023-02-01T11:27:53.136Z,2.35
2023-02-01T11:33:01.893Z,1.50
2023-02-01T11:38:22.186Z,2.42
2023-02-01T11:43:31.701Z,2.13
2023-02-01T11:48:38.081Z,2.03
2023-02-01T11:54:06.276Z,1.95
2023-02-01T11:59:39.063Z,2.73
2023-02-01T12:05:10.945Z,2.63
2023-02-01T12:10:33.002Z,2.25
2023-02-01T12:15:59.796Z,2.90
2023-02-01T12:21:25.464Z,2.47
2023-02-01T12:27:18.124Z,2.67
2023-02-01T12:32:49.065Z,2.17
2023-02-01T12:38:19.270Z,1.75
2023-02-01T12:43:40.855Z,2.70
2023-02-01T12:49:01.651Z,2.35
2023-02-01T12:54:16.345Z,2.30
2023-02-01T12:59:30.265Z,2.33
2023-02-01T13:04:46.324Z,1.70
2023-02-01T13:10:01.252Z,1.90
2023-02-01T13:15:19.014Z,1.75
2023-02-01T13:20:34.394Z,1.52
2023-02-01T13:25:51.416Z,1.38
2023-02-01T13:31:49.525Z,1.92
2023-02-01T13:37:19.673Z,1.27
2023-02-01T13:42:30.264Z,2.28
2023-02-01T13:47:43.540Z,1.65
2023-02-01T13:52:58.093Z,1.42
2023-02-01T13:58:16.742Z,1.60
2023-02-01T14:03:25.435Z,1.52
2023-02-01T14:09:08.287Z,1.98
2023-02-01T14:14:53.710Z,2.05
2023-02-01T14:20:47.002Z,1.73
2023-02-01T14:26:16.239Z,1.88
2023-02-01T14:31:45.028Z,1.90
2023-02-01T14:42:23.277Z,1.48
2023-02-01T14:47:35.882Z,1.40
2023-02-01T14:52:47.598Z,1.35
2023-02-01T14:58:00.872Z,1.45
2023-02-01T15:03:42.585Z,1.70
2023-02-01T15:08:49.674Z,1.52
2023-02-01T15:13:59.381Z,1.35
2023-02-01T15:19:16.416Z,1.50
2023-02-01T15:24:26.299Z,1.77
2023-02-01T15:29:35.371Z,1.50
2023-02-01T15:40:23.303Z,1.92
2023-02-01T15:45:35.480Z,2.03
2023-02-01T15:50:43.649Z,1.67
2023-02-01T15:55:54.645Z,2.50
2023-02-01T16:01:08.286Z,1.80
2023-02-01T16:06:30.670Z,1.80
2023-02-01T16:11:51.063Z,2.67
2023-02-01T16:17:01.667Z,2.38
2023-02-01T16:22:08.195Z,2.67
2023-02-01T16:27:15.868Z,2.17
2023-02-01T16:32:25.272Z,2.47
2023-02-01T16:37:33.681Z,2.10
2023-02-01T16:42:42.429Z,2.03
2023-02-01T16:47:53.710Z,2.78
2023-02-01T16:53:00.573Z,2.53
2023-02-01T16:58:10.714Z,2.47
2023-02-01T17:03:20.791Z,3.17
2023-02-01T17:08:35.361Z,1.92
2023-02-01T17:13:46.760Z,2.40
2023-02-01T17:19:00.523Z,2.28
2023-02-01T17:24:09.362Z,2.30
2023-02-01T17:29:17.242Z,2.60
2023-02-01T17:34:26.677Z,2.10
2023-02-01T17:39:51.564Z,2.38
2023-02-01T17:45:04.205Z,2.63
2023-02-01T17:50:16.087Z,2.63
2023-02-01T17:55:27.123Z,2.20
2023-02-01T18:00:38.103Z,2.53
2023-02-01T18:05:51.758Z,2.83
2023-02-01T18:11:01.856Z,2.28
2023-02-01T18:16:25.147Z,3.20
2023-02-01T18:21:42.063Z,2.70
2023-02-01T18:26:54.190Z,2.95
2023-02-01T18:32:07.095Z,3.20
2023-02-01T18:37:17.912Z,3.20
2023-02-01T18:42:27.515Z,4.70
2023-02-01T18:47:35.805Z,2.40
2023-02-01T18:52:47.440Z,2.58
2023-02-01T18:57:58.623Z,3.10
2023-02-01T19:03:07.667Z,2.72
2023-02-01T19:08:18.272Z,2.92
2023-02-01T19:13:30.493Z,3.03
2023-02-01T19:18:40.850Z,3.13
2023-02-01T19:23:50.773Z,2.72
2023-02-01T19:29:02.063Z,3.38
2023-02-01T19:34:13.367Z,2.60
2023-02-01T19:39:29.972Z,2.95
2023-02-01T19:44:40.331Z,3.00
2023-02-01T19:49:48.347Z,2.53
2023-02-01T19:55:01.865Z,2.10
2023-02-01T20:00:16.278Z,2.55
2023-02-01T20:05:25.837Z,2.60
2023-02-01T20:10:37.365Z,2.47
2023-02-01T20:15:47.450Z,2.80
2023-02-01T20:20:59.506Z,2.88
2023-02-01T20:26:16.368Z,3.72
2023-02-01T20:31:30.428Z,2.50
2023-02-01T20:36:40.578Z,3.08
2023-02-01T20:41:51.521Z,3.53
2023-02-01T20:46:59.866Z,3.22
2023-02-01T20:52:08.359Z,2.55
2023-02-01T20:57:21.189Z,2.90
2023-02-01T21:02:29.755Z,3.33
2023-02-01T21:07:39.087Z,3.50
2023-02-01T21:12:51.631Z,3.38
2023-02-01T21:18:05.521Z,3.78
2023-02-01T21:23:14.184Z,3.85
2023-02-01T21:28:23.801Z,3.00
2023-02-01T21:33:31.449Z,3.67
2023-02-01T21:38:40.353Z,4.10
2023-02-01T21:43:51.676Z,3.10
2023-02-01T21:54:15.270Z,2.97
2023-02-01T21:59:23.438Z,3.20
2023-02-01T22:04:30.061Z,4.87
2023-02-01T22:09:39.310Z,3.05
2023-02-01T22:14:49.998Z,3.35
2023-02-01T22:19:56.780Z,3.55
2023-02-01T22:25:04.905Z,3.53
2023-02-01T22:30:16.686Z,3.30
2023-02-01T22:35:23.647Z,2.65
2023-02-01T22:40:30.738Z,3.00
2023-02-01T22:45:39.058Z,3.00
2023-02-01T22:50:45.990Z,3.07
2023-02-01T22:55:52.355Z,2.67
2023-02-01T23:01:09.858Z,3.08
2023-02-01T23:06:18.860Z,3.47
2023-02-01T23:11:26.051Z,3.53
2023-02-01T23:16:34.303Z,3.38
2023-02-01T23:21:40.743Z,2.90
2023-02-01T23:26:47.373Z,3.78
2023-02-01T23:31:55.603Z,3.83
2023-02-01T23:37:02.294Z,3.27
2023-02-01T23:42:09.054Z,3.55
2023-02-01T23:47:17.128Z,3.35
2023-02-01T23:52:24.078Z,3.30
2023-02-01T23:57:30.711Z,2.92
